Terminal Aerodrome Forecast
Issued by NWS

Home | Current Version | Previous Version | Text Only | Print | Product List | Glossary On
Versions: 1 2 3 4 5 6 7 8 9 10 11 12 13 14 15 16 17 18 19 20 21 22 23 24 25 26 27 28 29 30 31 32 33 34 35 36 37 38 39 40 41
000
FTUS43 KGRB 240500
TAFRHI
TAF
KRHI 240529Z 2406/2506 VRB03KT 1/2SM -RA FG OVC002
     FM241000 32005KT 3/4SM -RA BR OVC003
     FM241300 32009KT 1 1/2SM -SN OVC005
     FM241500 32010G14KT 1/2SM SN OVC006
     FM242000 31010G16KT 4SM -SN OVC012
     FM250000 30010KT 6SM -SN OVC012
     FM250400 30010KT 4SM -SHSN BKN015=

USA.gov is the U.S. government's official web portal to all federal, state and local government web resources and services.